Time;durP1;ratioP1;P1;durP2;ratioP2;P2;SDS_P1;SDS_P2;PMS_P1;PMS_P2;Temp;Humidity;BMP_temperature;BMP_pressure;BME280_temperature;BME280_humidity;BME280_pressure;Samples;Min_cycle;Max_cycle;Signal;HPM_P1;HPM_P2
2022/10/06 00:02:13;;;;;;;;;;;;;;;20.86;39.72;100188.63;4483659;32;34242;-83
2022/10/06 00:04:40;;;;;;;;;;;;;;;20.82;39.83;100193.94;4483252;32;34337;-83
2022/10/06 00:07:07;;;;;;;;;;;;;;;20.84;39.80;100190.41;4483440;32;34426;-89
2022/10/06 00:09:35;;;;;;;;;;;;;;;20.81;39.86;100190.44;4483375;32;33555;-90
2022/10/06 00:12:02;;;;;;;;;;;;;;;20.78;39.99;100190.47;4483724;32;33917;-84
2022/10/06 00:14:29;;;;;;;;;;;;;;;20.80;39.98;100188.72;4483143;32;34746;-84
2022/10/06 00:16:56;;;;;;;;;;;;;;;20.81;39.92;100185.19;4483287;32;34205;-91
2022/10/06 00:19:24;;;;;;;;;;;;;;;20.71;40.06;100175.63;4482978;32;33435;-84
2022/10/06 00:21:51;;;;;;;;;;;;;;;20.71;40.22;100182.66;4483347;32;34304;-83
2022/10/06 00:24:18;;;;;;;;;;;;;;;20.57;40.55;100172.28;4483187;32;35206;-82
2022/10/06 00:26:46;;;;;;;;;;;;;;;20.55;40.66;100171.44;4482947;32;33860;-83
2022/10/06 00:29:13;;;;;;;;;;;;;;;20.49;40.55;100174.12;4483169;32;33216;-84
2022/10/06 00:31:40;;;;;;;;;;;;;;;20.55;40.47;100171.44;4483537;32;33614;-84
2022/10/06 00:34:09;;;;;;;;;;;;;;;20.45;40.93;100169.78;4483407;32;34940;-84
2022/10/06 00:36:36;;;;;;;;;;;;;;;20.25;41.34;100168.22;4482979;32;34568;-84
2022/10/06 00:39:03;;;;;;;;;;;;;;;20.38;41.13;100168.97;4483044;32;33407;-84
2022/10/06 00:41:30;;;;;;;;;;;;;;;20.34;41.18;100175.16;4483477;32;35134;-84
2022/10/06 00:43:58;;;;;;;;;;;;;;;20.28;41.33;100173.47;4483050;32;35159;-90
2022/10/06 00:46:33;;;;;;;;;;;;;;;20.34;41.23;100178.69;4482512;32;33752;-87
2022/10/06 00:49:06;;;;;;;;;;;;;;;20.39;41.06;100176.88;4483296;32;33338;-83
2022/10/06 00:51:33;;;;;;;;;;;;;;;20.46;40.80;100168.91;4483348;32;34592;-90
2022/10/06 00:54:01;;;;;;;;;;;;;;;20.28;40.93;100165.56;4468561;32;34280;-89
2022/10/06 00:56:28;;;;;;;;;;;;;;;20.48;40.35;100170.62;4482914;32;35207;-83
2022/10/06 00:58:55;;;;;;;;;;;;;;;20.25;40.75;100167.38;4483187;32;33492;-83
2022/10/06 01:01:23;;;;;;;;;;;;;;;20.15;40.93;100163.94;4483229;32;34768;-83
2022/10/06 01:03:54;;;;;;;;;;;;;;;20.08;41.18;100165.78;4482484;32;35280;-87
2022/10/06 01:06:21;;;;;;;;;;;;;;;19.99;41.26;100160.59;4468625;32;34064;-86
2022/10/06 01:08:49;;;;;;;;;;;;;;;20.11;41.06;100168.38;4483282;32;33105;-82
2022/10/06 01:11:16;;;;;;;;;;;;;;;20.05;41.09;100164.94;4483079;32;33445;-88
2022/10/06 01:13:43;;;;;;;;;;;;;;;20.21;40.58;100168.28;4483083;32;34160;-83
2022/10/06 01:16:10;;;;;;;;;;;;;;;20.19;40.37;100168.28;4482721;32;34340;-88
2022/10/06 01:18:38;;;;;;;;;;;;;;;20.12;40.34;100169.28;4482978;32;34271;-84
2022/10/06 01:21:12;;;;;;;;;;;;;;;20.14;39.95;100163.06;4468551;32;34068;-89
2022/10/06 01:23:39;;;;;;;;;;;;;;;20.02;40.26;100165.84;4468876;32;34484;-89
2022/10/06 01:26:07;;;;;;;;;;;;;;;20.10;40.08;100169.25;4467646;32;34671;-84
2022/10/06 01:28:34;;;;;;;;;;;;;;;20.13;39.88;100173.63;4466060;32;32908;-86
2022/10/06 01:31:03;;;;;;;;;;;;;;;20.06;39.96;100171.94;4481756;32;35267;-88
2022/10/06 01:33:30;;;;;;;;;;;;;;;19.97;40.09;100172.06;4468301;32;34265;-84
2022/10/06 01:35:57;;;;;;;;;;;;;;;19.82;40.36;100167.81;4483016;32;34168;-87
2022/10/06 01:38:25;;;;;;;;;;;;;;;19.86;40.27;100169.53;4482971;32;33058;-87
2022/10/06 01:40:53;;;;;;;;;;;;;;;19.85;40.38;100168.66;4483026;32;34051;-88
2022/10/06 01:43:20;;;;;;;;;;;;;;;19.85;40.40;100171.28;4482787;32;35235;-84
2022/10/06 01:45:54;;;;;;;;;;;;;;;19.75;40.61;100171.38;4480032;32;33898;-84
2022/10/06 01:48:22;;;;;;;;;;;;;;;19.71;40.73;100170.53;4482839;32;34342;-84
2022/10/06 01:50:50;;;;;;;;;;;;;;;19.71;40.84;100181.03;4468275;32;34147;-88
2022/10/06 01:53:17;;;;;;;;;;;;;;;19.70;40.83;100176.69;4482966;32;35257;-89
2022/10/06 01:55:45;;;;;;;;;;;;;;;19.80;40.59;100180.09;4482397;32;34685;-84
2022/10/06 01:58:13;;;;;;;;;;;;;;;19.79;40.36;100179.22;4484730;32;33175;-88
2022/10/06 02:00:40;;;;;;;;;;;;;;;19.81;40.21;100182.72;4487421;32;34725;-89
2022/10/06 02:03:07;;;;;;;;;;;;;;;19.70;40.28;100179.31;4488191;32;34374;-88
2022/10/06 02:05:35;;;;;;;;;;;;;;;19.71;40.19;100183.69;4487690;32;34266;-88
2022/10/06 02:08:02;;;;;;;;;;;;;;;19.82;39.80;100189.72;4487629;32;32850;-89
2022/10/06 02:10:32;;;;;;;;;;;;;;;19.71;39.93;100181.03;4487062;32;34078;-82
2022/10/06 02:13:01;;;;;;;;;;;;;;;19.69;39.95;100183.66;4487903;32;33972;-84
2022/10/06 02:15:31;;;;;;;;;;;;;;;19.66;40.03;100185.44;4487847;32;33835;-88
2022/10/06 02:17:59;;;;;;;;;;;;;;;19.64;40.12;100185.47;4487864;32;33032;-85
2022/10/06 02:20:26;;;;;;;;;;;;;;;19.51;40.36;100188.16;4487547;32;33690;-84
2022/10/06 02:22:53;;;;;;;;;;;;;;;19.49;40.54;100195.22;4487733;32;34115;-84
2022/10/06 02:25:20;;;;;;;;;;;;;;;19.47;40.60;100187.31;4486903;32;33886;-84
2022/10/06 02:27:48;;;;;;;;;;;;;;;19.35;40.95;100193.53;4487563;32;33542;-85
2022/10/06 02:30:15;;;;;;;;;;;;;;;19.40;40.99;100201.41;4487423;32;34070;-89
2022/10/06 02:32:43;;;;;;;;;;;;;;;19.47;40.47;100197.84;4487279;32;34367;-83
2022/10/06 02:35:13;;;;;;;;;;;;;;;19.52;40.10;100197.81;4486965;32;34902;-83
2022/10/06 02:37:41;;;;;;;;;;;;;;;19.40;40.24;100202.28;4486989;32;33356;-82
2022/10/06 02:40:09;;;;;;;;;;;;;;;19.24;40.49;100200.63;4487275;32;34639;-83
2022/10/06 02:42:38;;;;;;;;;;;;;;;19.32;40.29;100193.56;4472092;32;34446;-83
2022/10/06 02:45:06;;;;;;;;;;;;;;;19.27;40.48;100194.47;4487239;32;34329;-87
2022/10/06 02:47:34;;;;;;;;;;;;;;;19.41;40.25;100196.13;4487458;32;33997;-85
2022/10/06 02:50:04;;;;;;;;;;;;;;;19.32;40.41;100193.56;4472929;32;33838;-84
2022/10/06 02:52:33;;;;;;;;;;;;;;;19.28;40.54;100199.75;4487244;32;34063;-87
2022/10/06 02:55:01;;;;;;;;;;;;;;;19.35;40.25;100193.53;4471984;32;32784;-88
2022/10/06 02:57:29;;;;;;;;;;;;;;;19.31;40.33;100185.69;4465284;32;33018;-83
2022/10/06 02:59:56;;;;;;;;;;;;;;;19.21;40.75;100195.41;4473286;32;35221;-89
2022/10/06 03:02:23;;;;;;;;;;;;;;;19.12;41.01;100191.03;4487424;32;33874;-84
2022/10/06 03:04:53;;;;;;;;;;;;;;;19.18;41.14;100193.66;4486523;32;34221;-87
2022/10/06 03:07:20;;;;;;;;;;;;;;;19.20;41.10;100196.25;4486422;32;34147;-89
2022/10/06 03:09:48;;;;;;;;;;;;;;;19.22;41.04;100193.63;4484748;32;33976;-88
2022/10/06 03:12:15;;;;;;;;;;;;;;;19.24;41.04;100192.72;4484249;32;35276;-84
2022/10/06 03:14:42;;;;;;;;;;;;;;;19.30;40.87;100195.31;4483877;32;34136;-85
2022/10/06 03:17:10;;;;;;;;;;;;;;;19.29;40.88;100203.25;4484097;32;33193;-86
2022/10/06 03:19:37;;;;;;;;;;;;;;;19.33;40.82;100197.06;4484172;32;35086;-84
2022/10/06 03:22:06;;;;;;;;;;;;;;;19.25;40.95;100202.38;4483320;32;34502;-84
2022/10/06 03:24:33;;;;;;;;;;;;;;;19.36;40.74;100207.59;4484042;32;34695;-83
2022/10/06 03:27:02;;;;;;;;;;;;;;;19.43;40.51;100207.53;4483769;32;33309;-84
2022/10/06 03:29:29;;;;;;;;;;;;;;;19.43;40.48;100212.78;4483389;32;35035;-83
2022/10/06 03:31:57;;;;;;;;;;;;;;;19.45;40.45;100210.13;4456807;32;35369;-84
2022/10/06 03:34:25;;;;;;;;;;;;;;;19.37;40.54;100207.56;4484165;32;33805;-83
2022/10/06 03:36:53;;;;;;;;;;;;;;;19.44;40.45;100205.78;4480335;32;33556;-84
2022/10/06 03:39:20;;;;;;;;;;;;;;;19.36;40.57;100211.06;4484036;32;33940;-87
2022/10/06 03:41:50;;;;;;;;;;;;;;;19.34;40.59;100207.56;4483899;32;34108;-84
2022/10/06 03:44:20;;;;;;;;;;;;;;;19.32;40.69;100204.09;4483440;32;35069;-84
2022/10/06 03:46:48;;;;;;;;;;;;;;;19.34;40.75;100202.31;4484036;32;33179;-90
2022/10/06 03:49:15;;;;;;;;;;;;;;;19.37;40.74;100204.06;4483732;32;34371;-83
2022/10/06 03:51:42;;;;;;;;;;;;;;;19.32;40.72;100204.09;4483522;32;35047;-90
2022/10/06 03:54:11;;;;;;;;;;;;;;;19.38;40.43;100204.03;4483421;32;34298;-84
2022/10/06 03:56:40;;;;;;;;;;;;;;;19.26;40.66;100201.50;4484365;32;33408;-83
2022/10/06 03:59:09;;;;;;;;;;;;;;;19.38;40.57;100203.16;4483558;32;33786;-90
2022/10/06 04:01:41;;;;;;;;;;;;;;;19.37;40.57;100204.94;4483198;32;35290;-84
2022/10/06 04:04:10;;;;;;;;;;;;;;;19.37;40.66;100209.31;4484031;32;34892;-90
2022/10/06 04:06:39;;;;;;;;;;;;;;;19.41;40.49;100217.16;4468951;32;33426;-85
2022/10/06 04:09:08;;;;;;;;;;;;;;;19.37;40.35;100211.94;4469077;32;34787;-89
2022/10/06 04:11:42;;;;;;;;;;;;;;;19.32;40.41;100209.34;4483768;32;35433;-84
2022/10/06 04:14:10;;;;;;;;;;;;;;;19.24;40.46;100211.13;4469718;32;34346;-85
2022/10/06 04:16:39;;;;;;;;;;;;;;;19.35;40.26;100214.56;4483208;32;33434;-82
2022/10/06 04:19:09;;;;;;;;;;;;;;;19.22;40.42;100212.91;4469186;32;34997;-88
2022/10/06 04:21:37;;;;;;;;;;;;;;;19.29;39.98;100213.75;4482152;32;33828;-88
2022/10/06 04:24:06;;;;;;;;;;;;;;;19.29;40.03;100214.63;4483471;32;33797;-84
2022/10/06 04:26:34;;;;;;;;;;;;;;;19.28;40.21;100215.53;4469211;32;33135;-82
2022/10/06 04:29:02;;;;;;;;;;;;;;;19.30;40.13;100216.37;4482151;32;34031;-83
2022/10/06 04:31:30;;;;;;;;;;;;;;;19.30;40.05;100219.00;4480418;32;34430;-86
2022/10/06 04:33:58;;;;;;;;;;;;;;;19.24;40.20;100215.53;4465567;32;34962;-85
2022/10/06 04:36:27;;;;;;;;;;;;;;;19.02;40.78;100220.03;4483191;32;34021;-85
2022/10/06 04:38:57;;;;;;;;;;;;;;;19.06;40.73;100217.38;4467018;32;35067;-88
2022/10/06 04:41:26;;;;;;;;;;;;;;;19.11;40.46;100214.72;4468001;32;33996;-83
2022/10/06 04:43:53;;;;;;;;;;;;;;;19.03;40.36;100213.91;4483399;32;33395;-85
2022/10/06 04:46:21;;;;;;;;;;;;;;;19.08;40.18;100205.09;4468467;32;32462;-92
2022/10/06 04:49:10;;;;;;;;;;;;;;;19.22;39.77;100212.03;4471259;32;33817;-84
2022/10/06 04:51:45;;;;;;;;;;;;;;;19.06;40.08;100206.00;4479836;32;34111;-90
2022/10/06 04:54:13;;;;;;;;;;;;;;;18.94;40.50;100209.53;4468694;32;34867;-82
2022/10/06 04:56:40;;;;;;;;;;;;;;;18.91;40.84;100213.06;4482547;32;33557;-84
2022/10/06 04:59:09;;;;;;;;;;;;;;;19.00;40.78;100216.53;4482398;32;34243;-90
2022/10/06 05:01:37;;;;;;;;;;;;;;;18.86;40.73;100211.31;4467121;32;35399;-90
2022/10/06 05:04:06;;;;;;;;;;;;;;;18.93;40.75;100211.28;4468877;32;34910;-83
2022/10/06 05:06:37;;;;;;;;;;;;;;;18.92;40.86;100219.19;4482912;32;34115;-82
2022/10/06 05:09:08;;;;;;;;;;;;;;;18.92;40.78;100211.31;4482342;32;35262;-82
2022/10/06 05:11:36;;;;;;;;;;;;;;;18.92;40.67;100211.31;4482592;32;34439;-83
2022/10/06 05:14:04;;;;;;;;;;;;;;;18.92;40.82;100203.44;4483441;32;33905;-84
2022/10/06 05:16:32;;;;;;;;;;;;;;;19.02;40.23;100212.16;4469029;32;33236;-84
2022/10/06 05:18:59;;;;;;;;;;;;;;;18.92;40.33;100208.69;4482993;32;34000;-92
2022/10/06 05:21:27;;;;;;;;;;;;;;;18.95;40.36;100217.44;4483244;32;34344;-84
2022/10/06 05:23:56;;;;;;;;;;;;;;;19.04;40.23;100210.37;4469110;32;34955;-83
2022/10/06 05:26:25;;;;;;;;;;;;;;;19.09;40.15;100221.72;4456175;32;33226;-83
2022/10/06 05:28:52;;;;;;;;;;;;;;;19.01;40.38;100218.28;4468853;32;34043;-86
2022/10/06 05:31:21;;;;;;;;;;;;;;;19.07;40.53;100218.25;4483358;32;35097;-83
2022/10/06 05:33:48;;;;;;;;;;;;;;;19.19;40.57;100220.81;4467698;32;34283;-84
2022/10/06 05:36:16;;;;;;;;;;;;;;;19.24;40.49;100218.16;4469135;32;34004;-83
2022/10/06 05:38:44;;;;;;;;;;;;;;;19.14;40.78;100215.59;4468749;32;35146;-83
2022/10/06 05:41:13;;;;;;;;;;;;;;;19.24;40.74;100219.00;4483086;32;35087;-84
2022/10/06 05:43:41;;;;;;;;;;;;;;;19.32;40.97;100217.25;4483051;32;35103;-91
2022/10/06 05:46:18;;;;;;;;;;;;;;;19.30;41.10;100219.00;4468778;32;33474;-84
2022/10/06 05:48:46;;;;;;;;;;;;;;;19.10;41.94;100227.00;4482912;32;34818;-84
2022/10/06 05:51:14;;;;;;;;;;;;;;;18.54;43.41;100238.56;4468834;32;35049;-85
2022/10/06 05:53:42;;;;;;;;;;;;;;;18.85;42.96;100227.97;4483035;32;33767;-87
2022/10/06 05:56:10;;;;;;;;;;;;;;;19.28;41.70;100225.12;4455841;32;31965;-84
2022/10/06 05:58:39;;;;;;;;;;;;;;;19.30;41.50;100229.50;4483399;32;34189;-84
2022/10/06 06:01:10;;;;;;;;;;;;;;;19.40;41.15;100228.59;4468481;32;34285;-84
2022/10/06 06:03:38;;;;;;;;;;;;;;;19.48;40.91;100227.66;4468402;32;35075;-92
2022/10/06 06:06:13;;;;;;;;;;;;;;;19.51;40.83;100233.78;4482753;32;33180;-85
2022/10/06 06:08:41;;;;;;;;;;;;;;;19.55;40.75;100232.88;4468562;32;34693;-91
2022/10/06 06:11:08;;;;;;;;;;;;;;;19.55;41.12;100247.78;4468657;32;34568;-90
2022/10/06 06:13:35;;;;;;;;;;;;;;;19.63;41.19;100243.38;4483015;32;34090;-84
2022/10/06 06:16:04;;;;;;;;;;;;;;;19.66;41.37;100243.31;4482642;32;34323;-91
2022/10/06 06:18:33;;;;;;;;;;;;;;;19.68;41.56;100249.47;4468205;32;34693;-90
2022/10/06 06:21:04;;;;;;;;;;;;;;;19.35;42.62;100250.50;4468562;32;34063;-91
2022/10/06 06:23:33;;;;;;;;;;;;;;;19.70;42.02;100258.22;4482541;32;34156;-85
2022/10/06 06:26:05;;;;;;;;;;;;;;;19.77;41.83;100264.31;4468445;32;34224;-91
2022/10/06 06:28:35;;;;;;;;;;;;;;;19.78;41.89;100269.56;4468855;32;32473;-90
2022/10/06 06:31:05;;;;;;;;;;;;;;;19.85;41.91;100268.66;4482390;32;34895;-85
2022/10/06 06:33:34;;;;;;;;;;;;;;;19.55;42.67;100274.09;4468149;32;34321;-91
2022/10/06 06:36:02;;;;;;;;;;;;;;;19.51;43.07;100278.50;4482283;32;33359;-89
2022/10/06 06:38:30;;;;;;;;;;;;;;;19.64;42.92;100287.19;4482135;32;35007;-84
2022/10/06 06:40:59;;;;;;;;;;;;;;;19.82;42.65;100286.22;4468506;32;35183;-91
2022/10/06 06:43:26;;;;;;;;;;;;;;;19.94;42.56;100294.00;4482120;32;34737;-84
2022/10/06 06:46:00;;;;;;;;;;;;;;;19.95;42.55;100290.50;4483560;32;32863;-87
2022/10/06 06:48:31;;;;;;;;;;;;;;;20.15;42.12;100287.69;4484545;32;34956;-85
2022/10/06 06:50:59;;;;;;;;;;;;;;;20.08;42.08;100288.66;4484241;32;35409;-91
2022/10/06 06:53:27;;;;;;;;;;;;;;;19.96;42.64;100289.59;4484638;32;34228;-84
2022/10/06 06:55:55;;;;;;;;;;;;;;;20.15;42.44;100295.59;4484628;32;33355;-84
2022/10/06 06:58:22;;;;;;;;;;;;;;;20.01;42.72;100306.25;4484242;32;34143;-84
2022/10/06 07:00:49;;;;;;;;;;;;;;;19.78;43.21;100309.03;4484230;32;34826;-87
2022/10/06 07:03:19;;;;;;;;;;;;;;;19.50;44.08;100307.41;4484378;32;34201;-90
2022/10/06 07:06:11;;;;;;;;;;;;;;;19.52;44.46;100310.94;4484551;32;33472;-84
2022/10/06 07:08:42;;;;;;;;;;;;;;;19.80;43.82;100311.66;4484307;32;34911;-84
2022/10/06 07:11:29;;;;;;;;;;;;;;;20.20;42.92;100309.59;4484321;32;35125;-84
2022/10/06 07:14:00;;;;;;;;;;;;;;;20.02;43.51;100313.25;4484533;32;33845;-84
2022/10/06 07:25:06;;;;;;;;;;;;;;;19.97;44.68;100319.44;4472221;32;35081;-88
2022/10/06 07:27:35;;;;;;;;;;;;;;;19.69;45.53;100315.22;4484490;32;33502;-85
2022/10/06 07:30:03;;;;;;;;;;;;;;;19.65;45.60;100320.50;4470188;32;34342;-89
2022/10/06 07:32:31;;;;;;;;;;;;;;;19.59;46.02;100329.28;4484381;32;34359;-85
2022/10/06 07:34:58;;;;;;;;;;;;;;;19.13;47.23;100325.97;4483989;32;34399;-89
2022/10/06 07:37:26;;;;;;;;;;;;;;;18.88;47.83;100328.69;4483952;32;32936;-85
2022/10/06 07:39:54;;;;;;;;;;;;;;;19.34;46.56;100331.16;4483999;32;34316;-85
2022/10/06 07:42:22;;;;;;;;;;;;;;;19.11;46.86;100322.50;4484171;32;35320;-91
2022/10/06 07:47:37;;;;;;;;;;;;;;;19.14;47.69;100322.50;4484324;32;33738;-85
2022/10/06 07:50:07;;;;;;;;;;;;;;;18.57;49.10;100333.09;4484027;32;34336;-85
2022/10/06 07:52:37;;;;;;;;;;;;;;;19.55;47.32;100339.84;4470001;32;35317;-89
2022/10/06 07:55:06;;;;;;;;;;;;;;;19.61;47.46;100338.03;4484044;32;33771;-85
2022/10/06 07:57:34;;;;;;;;;;;;;;;19.63;47.13;100338.09;4470091;32;33209;-85
2022/10/06 08:00:04;;;;;;;;;;;;;;;18.52;49.20;100341.84;4483587;32;34051;-85
2022/10/06 08:02:38;;;;;;;;;;;;;;;19.99;46.17;100342.22;4470530;32;34209;-90
2022/10/06 08:05:07;;;;;;;;;;;;;;;19.83;47.07;100344.09;4483853;32;34241;-89
2022/10/06 08:07:34;;;;;;;;;;;;;;;20.69;45.49;100339.94;4484198;32;32907;-91
2022/10/06 08:10:01;;;;;;;;;;;;;;;19.64;46.89;100339.81;4483799;32;33818;-92
2022/10/06 08:12:32;;;;;;;;;;;;;;;19.20;48.88;100343.47;4483936;32;34058;-85
2022/10/06 08:15:02;;;;;;;;;;;;;;;20.56;45.92;100341.81;4483758;32;35074;-84
2022/10/06 08:17:34;;;;;;;;;;;;;;;21.28;44.60;100341.03;4483737;32;32186;-91
2022/10/06 08:20:03;;;;;;;;;;;;;;;21.50;44.09;100349.59;4483670;32;34360;-91
2022/10/06 08:22:30;;;;;;;;;;;;;;;21.66;42.46;100335.28;4483653;32;35309;-85
2022/10/06 08:24:57;;;;;;;;;;;;;;;21.98;42.11;100345.37;4483931;32;35304;-85
2022/10/06 08:27:35;;;;;;;;;;;;;;;22.20;42.45;100338.03;4470778;32;33537;-89
2022/10/06 08:30:03;;;;;;;;;;;;;;;22.38;41.98;100338.63;4469393;32;34806;-89
2022/10/06 08:32:31;;;;;;;;;;;;;;;22.64;41.53;100340.81;4483582;32;35108;-92
2022/10/06 08:34:59;;;;;;;;;;;;;;;22.23;41.29;100342.37;4483768;32;34262;-88
2022/10/06 08:37:26;;;;;;;;;;;;;;;22.73;41.13;100348.56;4483514;32;33267;-89
2022/10/06 08:39:53;;;;;;;;;;;;;;;22.53;41.17;100335.72;4483911;32;33232;-90
2022/10/06 08:42:35;;;;;;;;;;;;;;;23.18;38.75;100343.34;4483599;32;34362;-88
2022/10/06 08:45:03;;;;;;;;;;;;;;;22.54;39.16;100334.81;4483814;32;34705;-86
2022/10/06 08:47:32;;;;;;;;;;;;;;;21.66;41.04;100344.97;4469695;32;33561;-90
2022/10/06 08:50:00;;;;;;;;;;;;;;;21.38;41.93;100354.12;4483236;32;33906;-88
2022/10/06 08:52:40;;;;;;;;;;;;;;;21.84;41.13;100347.34;4483424;32;35225;-90
2022/10/06 08:55:25;;;;;;;;;;;;;;;22.47;40.01;100341.13;4483500;32;33544;-86
2022/10/06 08:57:55;;;;;;;;;;;;;;;22.48;40.65;100342.84;4483431;32;33679;-91
2022/10/06 09:00:22;;;;;;;;;;;;;;;22.99;38.79;100345.47;4483368;32;34848;-85
2022/10/06 09:02:50;;;;;;;;;;;;;;;22.61;39.23;100339.09;4483429;32;35277;-91
2022/10/06 09:05:23;;;;;;;;;;;;;;;23.08;38.95;100333.84;4469137;32;34058;-85
2022/10/06 09:08:04;;;;;;;;;;;;;;;23.43;38.77;100341.94;4482459;32;33353;-92
2022/10/06 09:10:34;;;;;;;;;;;;;;;23.07;39.81;100346.22;4469042;32;34968;-90
2022/10/06 09:13:05;;;;;;;;;;;;;;;23.00;39.14;100344.59;4483331;32;33941;-88
2022/10/06 09:15:53;;;;;;;;;;;;;;;22.86;39.37;100341.28;4483191;32;35029;-86
2022/10/06 09:18:30;;;;;;;;;;;;;;;23.25;40.62;100343.19;4483319;32;33364;-86
2022/10/06 09:21:18;;;;;;;;;;;;;;;23.68;40.56;100338.81;4483237;32;33885;-86
2022/10/06 09:23:47;;;;;;;;;;;;;;;23.59;38.97;100341.59;4483146;32;34475;-92
2022/10/06 09:26:15;;;;;;;;;;;;;;;23.10;39.89;100346.13;4469173;32;34280;-85
2022/10/06 09:28:45;;;;;;;;;;;;;;;23.14;40.44;100358.41;4483323;32;33116;-90
2022/10/06 09:31:24;;;;;;;;;;;;;;;23.02;39.88;100354.22;4482955;32;34013;-91
2022/10/06 09:33:54;;;;;;;;;;;;;;;23.81;39.13;100344.69;4483280;32;34214;-92
2022/10/06 09:36:22;;;;;;;;;;;;;;;23.97;38.22;100343.41;4468890;32;33809;-89
2022/10/06 09:38:52;;;;;;;;;;;;;;;23.13;38.99;100354.00;4483134;32;32881;-91
2022/10/06 09:41:24;;;;;;;;;;;;;;;24.16;37.65;100350.00;4482784;32;34018;-91
2022/10/06 09:44:02;;;;;;;;;;;;;;;24.60;35.72;100355.16;4468824;32;33946;-86
2022/10/06 09:46:31;;;;;;;;;;;;;;;24.05;37.61;100357.34;4468804;32;35026;-91
2022/10/06 09:49:34;;;;;;;;;;;;;;;24.10;37.57;100355.47;4468640;32;33024;-85
2022/10/06 09:52:13;;;;;;;;;;;;;;;24.47;37.37;100360.78;4403037;32;33740;-87
2022/10/06 09:54:42;;;;;;;;;;;;;;;24.47;37.05;100354.59;4473938;32;35290;-92
2022/10/06 09:57:13;;;;;;;;;;;;;;;24.74;35.83;100358.34;4483168;32;34198;-87
2022/10/06 09:59:44;;;;;;;;;;;;;;;24.86;37.43;100365.97;4468656;32;32840;-92
2022/10/06 10:02:26;;;;;;;;;;;;;;;24.99;35.62;100358.53;4469080;32;33626;-92
2022/10/06 10:04:54;;;;;;;;;;;;;;;24.78;35.77;100364.44;4468539;32;33895;-85
2022/10/06 10:07:25;;;;;;;;;;;;;;;23.86;37.32;100362.19;4468517;32;34390;-86
2022/10/06 10:09:52;;;;;;;;;;;;;;;23.72;38.25;100364.31;4482771;32;33462;-85
2022/10/06 10:12:24;;;;;;;;;;;;;;;23.18;40.67;100361.84;4468740;32;34229;-91
2022/10/06 10:14:51;;;;;;;;;;;;;;;24.03;39.27;100361.81;4468742;32;35306;-85
2022/10/06 10:17:20;;;;;;;;;;;;;;;24.12;37.03;100360.72;4482324;32;34171;-85
2022/10/06 10:19:51;;;;;;;;;;;;;;;24.30;37.03;100352.34;4469654;32;34168;-92
2022/10/06 10:22:21;;;;;;;;;;;;;;;24.63;36.79;100345.34;4470606;32;34241;-85
2022/10/06 10:24:53;;;;;;;;;;;;;;;24.20;37.35;100356.97;4470254;32;32940;-91
2022/10/06 10:27:22;;;;;;;;;;;;;;;24.73;36.82;100352.13;4484420;32;34062;-85
2022/10/06 10:30:00;;;;;;;;;;;;;;;24.32;36.60;100360.22;4470555;32;34211;-91
2022/10/06 10:32:39;;;;;;;;;;;;;;;23.78;36.53;100349.13;4470393;32;34988;-89
2022/10/06 10:35:23;;;;;;;;;;;;;;;24.04;36.75;100351.19;4484500;32;34436;-86
2022/10/06 10:37:57;;;;;;;;;;;;;;;24.46;38.25;100348.41;4484577;32;34003;-94
2022/10/06 10:40:27;;;;;;;;;;;;;;;24.69;34.34;100339.00;4484394;32;33476;-85
2022/10/06 10:42:54;;;;;;;;;;;;;;;24.44;36.82;100344.09;4470280;32;34895;-92
2022/10/06 10:45:27;;;;;;;;;;;;;;;24.24;35.03;100344.53;4484644;32;34375;-90
2022/10/06 10:47:55;;;;;;;;;;;;;;;23.91;35.21;100344.44;4484289;32;34001;-89
2022/10/06 10:50:26;;;;;;;;;;;;;;;24.70;34.46;100352.22;4470195;32;33242;-87
2022/10/06 10:52:56;;;;;;;;;;;;;;;24.49;36.62;100344.81;4469970;32;33783;-85
2022/10/06 10:55:25;;;;;;;;;;;;;;;24.84;35.03;100354.50;4469933;32;33847;-93
2022/10/06 10:57:54;;;;;;;;;;;;;;;24.40;36.48;100353.91;4484101;32;34201;-88
2022/10/06 11:00:24;;;;;;;;;;;;;;;24.73;36.75;100344.16;4484241;32;33514;-91
2022/10/06 11:02:52;;;;;;;;;;;;;;;25.35;35.33;100347.81;4470264;32;34292;-92
2022/10/06 11:05:32;;;;;;;;;;;;;;;24.98;34.92;100335.56;4484450;32;34472;-85
2022/10/06 11:08:03;;;;;;;;;;;;;;;24.62;35.94;100340.94;4483847;32;33954;-87
2022/10/06 11:10:37;;;;;;;;;;;;;;;24.42;36.66;100351.19;4470023;32;32859;-85
2022/10/06 11:13:09;;;;;;;;;;;;;;;24.28;37.14;100347.09;4469797;32;34739;-91
2022/10/06 11:15:45;;;;;;;;;;;;;;;24.75;35.83;100352.97;4484183;32;34172;-93
2022/10/06 11:18:24;;;;;;;;;;;;;;;25.04;34.74;100339.81;4484373;32;34520;-89
2022/10/06 11:20:54;;;;;;;;;;;;;;;25.04;35.39;100343.38;4484067;32;33038;-88
2022/10/06 11:23:27;;;;;;;;;;;;;;;24.83;34.68;100338.63;4484011;32;35050;-90
2022/10/06 11:26:27;;;;;;;;;;;;;;;25.58;35.57;100339.19;4484950;31;34169;-85
2022/10/06 11:29:00;;;;;;;;;;;;;;;24.71;36.18;100340.72;4441547;32;34559;-90
2022/10/06 11:31:47;;;;;;;;;;;;;;;25.48;33.81;100339.44;4469471;32;33283;-86
2022/10/06 11:34:14;;;;;;;;;;;;;;;25.90;33.16;100328.44;4483801;32;35060;-90
2022/10/06 11:36:51;;;;;;;;;;;;;;;25.66;35.17;100334.50;4483960;32;34090;-86
2022/10/06 11:39:20;;;;;;;;;;;;;;;25.55;36.34;100326.84;4469808;32;34797;-86
2022/10/06 11:41:48;;;;;;;;;;;;;;;26.28;33.62;100312.16;4470411;32;32611;-92
2022/10/06 11:44:18;;;;;;;;;;;;;;;25.35;36.26;100314.19;4469898;32;33746;-91
2022/10/06 11:46:51;;;;;;;;;;;;;;;25.80;35.03;100313.72;4469676;32;34310;-91
2022/10/06 11:49:28;;;;;;;;;;;;;;;25.47;34.44;100315.59;4469753;32;34756;-85
2022/10/06 11:51:58;;;;;;;;;;;;;;;25.21;36.38;100316.38;4483965;32;33348;-86
2022/10/06 11:54:33;;;;;;;;;;;;;;;25.52;35.63;100320.75;4470343;32;33867;-91
2022/10/06 11:57:00;;;;;;;;;;;;;;;25.40;35.31;100324.66;4484009;32;33767;-91
2022/10/06 11:59:30;;;;;;;;;;;;;;;25.63;34.54;100319.53;4484047;32;34561;-92
2022/10/06 12:01:57;;;;;;;;;;;;;;;25.85;35.45;100318.91;4483922;32;33431;-85
2022/10/06 12:04:25;;;;;;;;;;;;;;;26.03;34.51;100320.97;4469717;32;35012;-90
2022/10/06 12:06:53;;;;;;;;;;;;;;;25.50;35.37;100318.16;4469706;32;33737;-85
2022/10/06 12:09:44;;;;;;;;;;;;;;;25.27;35.50;100318.84;4469638;32;34305;-91
2022/10/06 12:12:18;;;;;;;;;;;;;;;25.48;35.85;100314.69;4483686;32;33841;-85
2022/10/06 12:14:55;;;;;;;;;;;;;;;25.92;33.43;100315.13;4483694;32;34387;-86
2022/10/06 12:17:45;;;;;;;;;;;;;;;25.97;34.56;100321.16;4472176;32;35314;-92
2022/10/06 12:20:12;;;;;;;;;;;;;;;26.23;33.52;100308.81;4483623;32;34806;-93
2022/10/06 12:22:49;;;;;;;;;;;;;;;25.45;35.29;100307.66;4484037;32;33243;-86
2022/10/06 12:25:40;;;;;;;;;;;;;;;25.50;34.48;100307.56;4469493;32;34275;-89
2022/10/06 12:28:23;;;;;;;;;;;;;;;25.73;34.18;100313.00;4447111;32;35369;-92
2022/10/06 12:30:50;;;;;;;;;;;;;;;25.54;35.24;100306.53;4469439;32;34882;-85
2022/10/06 12:33:17;;;;;;;;;;;;;;;25.91;35.10;100306.28;4483531;32;34220;-86
2022/10/06 12:35:45;;;;;;;;;;;;;;;25.77;35.23;100310.25;4469218;32;35757;-86
2022/10/06 12:38:31;;;;;;;;;;;;;;;25.73;35.27;100305.03;4483631;32;34579;-91
2022/10/06 12:41:00;;;;;;;;;;;;;;;25.23;35.88;100309.25;4483571;32;35135;-85
2022/10/06 12:43:30;;;;;;;;;;;;;;;24.58;36.79;100302.16;4468572;32;34218;-91
2022/10/06 12:45:58;;;;;;;;;;;;;;;25.78;35.44;100302.28;4469211;32;34799;-91
2022/10/06 12:48:26;;;;;;;;;;;;;;;26.34;34.30;100296.88;4469428;32;34371;-91
2022/10/06 12:50:56;;;;;;;;;;;;;;;25.42;35.50;100298.91;4483552;32;35042;-86
2022/10/06 12:53:26;;;;;;;;;;;;;;;26.07;35.78;100296.03;4469548;32;34211;-85
2022/10/06 12:55:55;;;;;;;;;;;;;;;26.00;35.77;100297.13;4469398;32;34140;-92
2022/10/06 12:58:31;;;;;;;;;;;;;;;25.84;36.93;100296.78;4469179;32;35183;-91
2022/10/06 13:00:59;;;;;;;;;;;;;;;25.89;35.06;100300.12;4469861;32;34229;-86
2022/10/06 13:03:27;;;;;;;;;;;;;;;26.22;36.53;100280.50;4469137;32;33425;-92